createdAt,value
2022-12-19T06:32:04.555Z,7.90
2022-12-19T06:35:02.656Z,8.23
2022-12-19T06:37:19.180Z,10.00
2022-12-19T06:39:46.324Z,9.77
2022-12-19T06:42:28.530Z,9.55
2022-12-19T06:44:56.393Z,8.07
2022-12-19T06:47:24.787Z,8.93
2022-12-19T06:49:51.970Z,8.15
2022-12-19T06:52:19.407Z,8.40
2022-12-19T06:54:46.736Z,9.85
2022-12-19T06:57:13.858Z,10.27
2022-12-19T06:59:40.981Z,12.52
2022-12-19T07:02:23.055Z,9.70
2022-12-19T07:04:59.752Z,9.37
2022-12-19T07:07:28.864Z,6.88
2022-12-19T07:09:56.244Z,6.80
2022-12-19T07:12:23.411Z,7.65
2022-12-19T07:14:53.575Z,8.05
2022-12-19T07:17:24.338Z,12.43
2022-12-19T07:19:54.453Z,12.88
2022-12-19T07:22:22.398Z,15.45
2022-12-19T07:24:49.689Z,17.60
2022-12-19T07:27:16.947Z,15.35
2022-12-19T07:29:44.264Z,16.38
2022-12-19T07:32:11.415Z,18.73
2022-12-19T07:34:38.547Z,18.52
2022-12-19T07:37:06.751Z,18.52
2022-12-19T07:39:33.912Z,19.85
2022-12-19T07:42:01.045Z,17.13
2022-12-19T07:44:28.213Z,18.38
2022-12-19T07:46:55.367Z,18.25
2022-12-19T07:49:23.095Z,20.35
2022-12-19T07:51:50.799Z,18.77
2022-12-19T07:54:17.973Z,18.52
2022-12-19T07:56:45.165Z,18.40
2022-12-19T07:59:13.123Z,17.42
2022-12-19T08:01:40.367Z,19.80
2022-12-19T08:04:07.534Z,18.75
2022-12-19T08:06:40.609Z,18.42
2022-12-19T08:09:08.875Z,16.38
2022-12-19T08:11:36.311Z,17.77
2022-12-19T08:14:03.478Z,18.08
2022-12-19T08:16:30.925Z,18.92
2022-12-19T08:18:58.101Z,17.80
2022-12-19T08:21:25.377Z,18.30
2022-12-19T08:23:53.326Z,17.88
2022-12-19T08:26:25.493Z,17.55
2022-12-19T08:28:55.222Z,20.50
2022-12-19T08:31:25.048Z,19.40
2022-12-19T08:33:54.959Z,19.15
2022-12-19T08:36:22.632Z,18.77
2022-12-19T08:38:50.911Z,17.10
2022-12-19T08:41:18.627Z,16.42
2022-12-19T08:43:51.069Z,16.88
2022-12-19T08:46:19.461Z,15.27
2022-12-19T08:48:46.930Z,16.80
2022-12-19T08:51:15.767Z,15.02
2022-12-19T08:53:44.586Z,14.93
2022-12-19T08:56:14.362Z,14.30
2022-12-19T08:58:42.299Z,14.98
2022-12-19T09:01:13.875Z,15.80
2022-12-19T09:04:01.575Z,8.90
2022-12-19T09:06:29.330Z,12.73
2022-12-19T09:09:00.296Z,14.18
2022-12-19T09:11:27.964Z,12.98
2022-12-19T09:13:57.565Z,14.52
2022-12-19T09:16:27.039Z,11.52
2022-12-19T09:18:56.967Z,13.82
2022-12-19T09:21:28.885Z,13.00
2022-12-19T09:24:05.281Z,10.32
2022-12-19T09:26:35.586Z,6.07
2022-12-19T09:29:08.751Z,13.70
2022-12-19T09:31:55.437Z,13.68
2022-12-19T09:34:33.088Z,14.48
2022-12-19T09:37:07.652Z,14.07
2022-12-19T09:39:36.091Z,15.32
2022-12-19T09:42:28.054Z,13.60
2022-12-19T09:45:27.391Z,7.50
2022-12-19T09:48:01.399Z,4.65
2022-12-19T09:50:39.296Z,3.85
2022-12-19T09:53:30.330Z,3.85
2022-12-19T09:55:59.665Z,4.55
2022-12-19T09:58:40.410Z,4.72
2022-12-19T10:01:19.121Z,4.97
2022-12-19T10:03:59.220Z,5.88
2022-12-19T10:07:16.301Z,3.65
2022-12-19T10:10:35.842Z,5.88
2022-12-19T10:12:43.864Z,12.20
2022-12-19T10:15:42.468Z,15.60
2022-12-19T10:18:52.808Z,17.80
2022-12-19T10:24:51.999Z,13.55
2022-12-19T10:27:59.636Z,7.70
2022-12-19T10:30:32.334Z,4.10
2022-12-19T10:33:25.647Z,13.60
2022-12-19T10:36:02.332Z,16.90
2022-12-19T10:38:39.326Z,7.18
2022-12-19T10:41:22.076Z,6.95
2022-12-19T10:44:05.905Z,4.90
2022-12-19T10:46:43.095Z,4.25
2022-12-19T10:49:21.827Z,3.72
2022-12-19T10:52:00.249Z,3.15
2022-12-19T10:54:43.891Z,3.42
2022-12-19T10:57:28.195Z,3.78
2022-12-19T11:00:01.794Z,3.58
2022-12-19T11:02:47.786Z,3.65
2022-12-19T11:05:45.851Z,2.97
2022-12-19T11:08:23.966Z,3.72
2022-12-19T11:12:11.866Z,3.08
2022-12-19T11:17:09.148Z,3.63
2022-12-19T11:21:16.533Z,3.10
2022-12-19T11:29:16.697Z,2.83
2022-12-19T11:30:38.647Z,4.43
2022-12-19T11:30:43.750Z,3.13
2022-12-19T11:30:48.002Z,3.42
2022-12-19T11:32:31.517Z,2.72
2022-12-19T11:34:19.326Z,2.97
2022-12-19T11:37:17.533Z,3.13
2022-12-19T11:39:51.425Z,3.53
2022-12-19T11:42:31.638Z,4.20
2022-12-19T11:45:39.291Z,2.72
2022-12-19T11:48:21.729Z,3.60
2022-12-19T11:51:01.627Z,4.13
2022-12-19T11:53:36.006Z,3.25
2022-12-19T11:58:50.845Z,3.83
2022-12-19T12:01:35.192Z,4.20
2022-12-19T12:04:43.553Z,3.55
2022-12-19T12:07:16.934Z,3.78
2022-12-19T12:13:50.307Z,3.83
2022-12-19T12:21:24.991Z,3.35
2022-12-19T12:31:11.643Z,3.28
2022-12-19T12:31:29.757Z,3.55
2022-12-19T12:31:45.375Z,3.20
2022-12-19T12:35:35.101Z,3.55
2022-12-19T12:37:51.426Z,3.17
2022-12-19T12:38:25.825Z,3.22
2022-12-19T12:41:17.870Z,3.13
2022-12-19T12:44:08.325Z,3.40
2022-12-19T12:46:43.252Z,3.83
2022-12-19T12:49:30.051Z,3.70
2022-12-19T12:51:59.313Z,3.72
2022-12-19T12:54:35.558Z,3.10
2022-12-19T12:57:03.528Z,4.65
2022-12-19T12:59:31.380Z,4.20
2022-12-19T13:02:07.490Z,5.05
2022-12-19T13:04:42.873Z,4.00
2022-12-19T13:07:19.285Z,4.90
2022-12-19T13:09:54.499Z,4.80
2022-12-19T13:12:46.516Z,4.68
2022-12-19T13:18:14.780Z,4.75
2022-12-19T13:20:46.885Z,4.28
2022-12-19T13:23:32.481Z,5.37
2022-12-19T13:26:00.048Z,4.85
2022-12-19T13:28:32.501Z,4.35
2022-12-19T13:31:19.903Z,4.35
2022-12-19T13:39:50.679Z,4.90
2022-12-19T13:40:12.066Z,4.53
2022-12-19T13:43:21.473Z,4.53
2022-12-19T13:45:59.404Z,5.13
2022-12-19T13:48:32.538Z,4.95
2022-12-19T13:51:05.363Z,5.13
2022-12-19T13:53:32.650Z,5.70
2022-12-19T13:56:03.439Z,5.50
2022-12-19T13:58:37.142Z,5.05
2022-12-19T14:01:20.657Z,4.90
2022-12-19T14:03:51.537Z,4.55
2022-12-19T14:06:23.991Z,4.75
2022-12-19T14:09:16.726Z,4.85
2022-12-19T14:13:44.223Z,5.15
2022-12-19T14:15:12.335Z,4.72
2022-12-19T14:17:39.177Z,4.22
2022-12-19T14:20:48.907Z,4.43
2022-12-19T14:23:06.457Z,5.03
2022-12-19T14:28:17.164Z,5.72
2022-12-19T14:28:48.980Z,6.00
2022-12-19T14:31:21.394Z,5.53
2022-12-19T14:34:11.603Z,6.85
2022-12-19T14:36:40.318Z,6.95
2022-12-19T14:39:26.316Z,8.40
2022-12-19T14:43:55.757Z,8.48
2022-12-19T14:53:33.866Z,8.18
2022-12-19T14:54:11.032Z,7.28
2022-12-19T14:54:34.716Z,8.80
2022-12-19T14:57:34.039Z,9.05
2022-12-19T15:01:07.802Z,6.72
2022-12-19T15:03:39.539Z,7.10
2022-12-19T15:07:05.028Z,10.43
2022-12-19T15:11:00.148Z,13.65
2022-12-19T15:14:03.886Z,9.68
2022-12-19T15:15:25.188Z,9.68
2022-12-19T15:17:56.338Z,9.77
2022-12-19T15:20:23.494Z,6.55
2022-12-19T15:22:50.623Z,5.05
2022-12-19T15:25:44.041Z,5.40
2022-12-19T15:28:16.322Z,7.20
2022-12-19T15:30:48.604Z,8.38
2022-12-19T15:33:17.235Z,7.60
2022-12-19T15:35:45.030Z,7.28
2022-12-19T15:38:12.358Z,8.70
2022-12-19T15:40:42.692Z,8.00
2022-12-19T15:44:01.233Z,7.57
2022-12-19T15:46:06.981Z,8.82
2022-12-19T15:48:40.221Z,7.00
2022-12-19T15:51:12.191Z,7.60
2022-12-19T15:53:41.304Z,6.70
2022-12-19T15:56:25.127Z,8.35
2022-12-19T15:58:53.867Z,7.28
2022-12-19T16:01:21.750Z,6.63
2022-12-19T16:03:50.066Z,5.53
2022-12-19T16:06:17.562Z,4.90
2022-12-19T16:08:44.690Z,4.13
2022-12-19T16:11:19.886Z,4.13
2022-12-19T16:13:52.455Z,4.88
2022-12-19T16:16:20.035Z,3.75
2022-12-19T16:18:47.695Z,4.55
2022-12-19T16:21:23.657Z,3.95
2022-12-19T16:23:54.559Z,3.75
2022-12-19T16:26:39.033Z,3.90
2022-12-19T16:29:18.501Z,3.53
2022-12-19T16:31:46.149Z,3.67
2022-12-19T16:34:16.911Z,4.22
2022-12-19T16:36:44.814Z,3.70
2022-12-19T16:39:12.531Z,3.70
2022-12-19T16:41:41.904Z,4.10
2022-12-19T16:44:19.560Z,3.88
2022-12-19T16:46:51.111Z,3.88
2022-12-19T16:49:22.942Z,3.85
2022-12-19T16:51:50.844Z,3.45
2022-12-19T16:54:18.625Z,4.25
2022-12-19T16:56:50.293Z,3.83
2022-12-19T16:59:26.922Z,4.72
